sensor_id;sensor_type;location;lat;lon;timestamp;pressure;altitude;pressure_sealevel;temperature;humidity
32733;BME280;11867;51.198;11.966;2023-01-26T00:00:41;101285.56;;;2.46;85.71
32733;BME280;11867;51.198;11.966;2023-01-26T00:01:42;101290.28;;;2.37;85.71
32733;BME280;11867;51.198;11.966;2023-01-26T00:02:45;101285.16;;;2.42;85.94
32733;BME280;11867;51.198;11.966;2023-01-26T00:03:48;101285.44;;;2.06;86.41
32733;BME280;11867;51.198;11.966;2023-01-26T00:04:50;101287.91;;;2.01;86.76
32733;BME280;11867;51.198;11.966;2023-01-26T00:05:54;101287.50;;;2.04;86.96
32733;BME280;11867;51.198;11.966;2023-01-26T00:06:55;101269.88;;;1.95;86.98
32733;BME280;11867;51.198;11.966;2023-01-26T00:07:58;101277.13;;;1.94;87.50
32733;BME280;11867;51.198;11.966;2023-01-26T00:08:59;101278.81;;;2.09;86.91
32733;BME280;11867;51.198;11.966;2023-01-26T00:10:02;101263.81;;;1.79;87.54
32733;BME280;11867;51.198;11.966;2023-01-26T00:11:04;101282.47;;;1.88;88.03
32733;BME280;11867;51.198;11.966;2023-01-26T00:12:07;101281.69;;;2.00;87.69
32733;BME280;11867;51.198;11.966;2023-01-26T00:13:09;101258.06;;;1.89;87.81
32733;BME280;11867;51.198;11.966;2023-01-26T00:14:11;101283.38;;;2.15;87.55
32733;BME280;11867;51.198;11.966;2023-01-26T00:15:14;101251.44;;;1.92;87.24
32733;BME280;11867;51.198;11.966;2023-01-26T00:16:15;101278.19;;;2.07;86.84
32733;BME280;11867;51.198;11.966;2023-01-26T00:17:19;101274.88;;;2.05;87.31
32733;BME280;11867;51.198;11.966;2023-01-26T00:18:26;101272.13;;;1.91;86.76
32733;BME280;11867;51.198;11.966;2023-01-26T00:19:29;101265.47;;;1.80;87.22
32733;BME280;11867;51.198;11.966;2023-01-26T00:20:30;101264.59;;;1.73;87.70
32733;BME280;11867;51.198;11.966;2023-01-26T00:21:34;101259.63;;;1.70;88.45
32733;BME280;11867;51.198;11.966;2023-01-26T00:22:35;101266.25;;;1.68;88.03
32733;BME280;11867;51.198;11.966;2023-01-26T00:23:38;101254.44;;;1.62;87.85
32733;BME280;11867;51.198;11.966;2023-01-26T00:24:40;101257.59;;;1.72;88.47
32733;BME280;11867;51.198;11.966;2023-01-26T00:25:42;101256.78;;;1.78;87.87
32733;BME280;11867;51.198;11.966;2023-01-26T00:26:44;101250.94;;;1.68;88.13
32733;BME280;11867;51.198;11.966;2023-01-26T00:27:46;101256.31;;;1.68;88.59
32733;BME280;11867;51.198;11.966;2023-01-26T00:28:49;101264.06;;;1.85;88.21
32733;BME280;11867;51.198;11.966;2023-01-26T00:29:52;101219.88;;;1.59;87.97
32733;BME280;11867;51.198;11.966;2023-01-26T00:31:01;101255.97;;;1.85;87.91
32733;BME280;11867;51.198;11.966;2023-01-26T00:32:04;101256.16;;;1.41;88.71
32733;BME280;11867;51.198;11.966;2023-01-26T00:33:05;101244.50;;;1.28;89.63
32733;BME280;11867;51.198;11.966;2023-01-26T00:34:08;101242.41;;;1.23;89.93
32733;BME280;11867;51.198;11.966;2023-01-26T00:35:09;101242.91;;;1.33;90.03
32733;BME280;11867;51.198;11.966;2023-01-26T00:36:12;101250.06;;;1.61;89.83
32733;BME280;11867;51.198;11.966;2023-01-26T00:37:16;101229.66;;;1.73;88.80
32733;BME280;11867;51.198;11.966;2023-01-26T00:38:18;101249.28;;;1.67;88.10
32733;BME280;11867;51.198;11.966;2023-01-26T00:39:20;101255.25;;;1.28;88.65
32733;BME280;11867;51.198;11.966;2023-01-26T00:40:22;101258.78;;;1.28;89.91
32733;BME280;11867;51.198;11.966;2023-01-26T00:41:24;101249.69;;;1.29;90.27
32733;BME280;11867;51.198;11.966;2023-01-26T00:42:44;101244.75;;;1.05;90.71
32733;BME280;11867;51.198;11.966;2023-01-26T00:43:46;101249.63;;;1.16;91.08
32733;BME280;11867;51.198;11.966;2023-01-26T00:44:48;101249.88;;;1.28;91.07
32733;BME280;11867;51.198;11.966;2023-01-26T00:45:50;101232.56;;;1.30;90.38
32733;BME280;11867;51.198;11.966;2023-01-26T00:46:52;101216.84;;;1.34;90.13
32733;BME280;11867;51.198;11.966;2023-01-26T00:47:55;101247.69;;;1.45;90.41
32733;BME280;11867;51.198;11.966;2023-01-26T00:48:56;101240.88;;;1.42;89.65
32733;BME280;11867;51.198;11.966;2023-01-26T00:50:01;101247.34;;;1.54;89.74
32733;BME280;11867;51.198;11.966;2023-01-26T00:51:02;101232.16;;;1.33;89.83
32733;BME280;11867;51.198;11.966;2023-01-26T00:52:05;101221.06;;;1.43;89.68
32733;BME280;11867;51.198;11.966;2023-01-26T00:53:09;101228.59;;;1.26;89.88
32733;BME280;11867;51.198;11.966;2023-01-26T00:54:11;101251.09;;;1.53;89.84
32733;BME280;11867;51.198;11.966;2023-01-26T00:55:13;101241.34;;;1.52;90.27
32733;BME280;11867;51.198;11.966;2023-01-26T00:56:16;101227.25;;;1.44;90.09
32733;BME280;11867;51.198;11.966;2023-01-26T00:57:17;101228.03;;;1.37;89.97
32733;BME280;11867;51.198;11.966;2023-01-26T00:58:19;101241.53;;;1.51;89.41
32733;BME280;11867;51.198;11.966;2023-01-26T00:59:21;101244.38;;;1.42;89.82
32733;BME280;11867;51.198;11.966;2023-01-26T01:00:24;101230.94;;;1.42;90.05
32733;BME280;11867;51.198;11.966;2023-01-26T01:01:25;101242.44;;;1.65;89.73
32733;BME280;11867;51.198;11.966;2023-01-26T01:02:28;101224.88;;;1.69;89.05
32733;BME280;11867;51.198;11.966;2023-01-26T01:03:29;101212.28;;;1.34;89.21
32733;BME280;11867;51.198;11.966;2023-01-26T01:04:32;101227.88;;;1.11;89.78
32733;BME280;11867;51.198;11.966;2023-01-26T01:05:33;101237.28;;;1.28;90.61
32733;BME280;11867;51.198;11.966;2023-01-26T01:06:36;101216.19;;;1.25;90.78
32733;BME280;11867;51.198;11.966;2023-01-26T01:07:38;101217.84;;;1.26;90.74
32733;BME280;11867;51.198;11.966;2023-01-26T01:08:42;101241.16;;;1.19;91.34
32733;BME280;11867;51.198;11.966;2023-01-26T01:09:44;101216.34;;;1.17;91.10
32733;BME280;11867;51.198;11.966;2023-01-26T01:10:46;101241.69;;;1.42;90.93
32733;BME280;11867;51.198;11.966;2023-01-26T01:11:48;101234.03;;;1.39;90.35
32733;BME280;11867;51.198;11.966;2023-01-26T01:12:51;101239.59;;;1.38;90.68
32733;BME280;11867;51.198;11.966;2023-01-26T01:13:52;101229.50;;;1.40;90.63
32733;BME280;11867;51.198;11.966;2023-01-26T01:14:55;101234.16;;;1.25;90.59
32733;BME280;11867;51.198;11.966;2023-01-26T01:15:56;101232.88;;;1.14;91.17
32733;BME280;11867;51.198;11.966;2023-01-26T01:16:59;101233.72;;;1.21;91.53
32733;BME280;11867;51.198;11.966;2023-01-26T01:18:00;101212.56;;;1.11;91.20
32733;BME280;11867;51.198;11.966;2023-01-26T01:19:03;101228.06;;;1.44;91.22
32733;BME280;11867;51.198;11.966;2023-01-26T01:20:06;101203.22;;;1.35;90.79
32733;BME280;11867;51.198;11.966;2023-01-26T01:21:12;101226.44;;;1.43;90.41
32733;BME280;11867;51.198;11.966;2023-01-26T01:22:14;101220.19;;;1.42;90.47
32733;BME280;11867;51.198;11.966;2023-01-26T01:23:17;101199.31;;;1.38;90.51
32733;BME280;11867;51.198;11.966;2023-01-26T01:24:20;101225.50;;;1.71;89.87
32733;BME280;11867;51.198;11.966;2023-01-26T01:25:23;101215.38;;;1.66;88.99
32733;BME280;11867;51.198;11.966;2023-01-26T01:26:25;101223.66;;;1.71;89.40
32733;BME280;11867;51.198;11.966;2023-01-26T01:27:27;101229.28;;;1.83;88.93
32733;BME280;11867;51.198;11.966;2023-01-26T01:28:30;101220.88;;;1.99;88.72
32733;BME280;11867;51.198;11.966;2023-01-26T01:29:32;101224.19;;;2.08;88.30
32733;BME280;11867;51.198;11.966;2023-01-26T01:30:36;101206.16;;;1.95;87.92
32733;BME280;11867;51.198;11.966;2023-01-26T01:31:38;101209.94;;;2.14;87.67
32733;BME280;11867;51.198;11.966;2023-01-26T01:32:41;101215.53;;;2.19;87.54
32733;BME280;11867;51.198;11.966;2023-01-26T01:33:43;101219.22;;;2.05;86.97
32733;BME280;11867;51.198;11.966;2023-01-26T01:34:46;101219.19;;;1.98;87.53
32733;BME280;11867;51.198;11.966;2023-01-26T01:35:55;101210.13;;;2.06;87.72
32733;BME280;11867;51.198;11.966;2023-01-26T01:36:57;101190.63;;;1.91;87.63
32733;BME280;11867;51.198;11.966;2023-01-26T01:37:59;101212.59;;;2.01;87.65
32733;BME280;11867;51.198;11.966;2023-01-26T01:39:01;101210.72;;;1.95;87.97
32733;BME280;11867;51.198;11.966;2023-01-26T01:40:08;101210.53;;;2.10;87.59
32733;BME280;11867;51.198;11.966;2023-01-26T01:41:12;101206.22;;;2.22;87.19
32733;BME280;11867;51.198;11.966;2023-01-26T01:42:14;101206.44;;;2.20;87.13
32733;BME280;11867;51.198;11.966;2023-01-26T01:43:17;101203.53;;;2.22;87.16
32733;BME280;11867;51.198;11.966;2023-01-26T01:44:20;101212.63;;;2.14;87.27
32733;BME280;11867;51.198;11.966;2023-01-26T01:45:36;101202.72;;;2.21;86.92
32733;BME280;11867;51.198;11.966;2023-01-26T01:46:44;101207.69;;;2.25;86.63
32733;BME280;11867;51.198;11.966;2023-01-26T01:47:47;101206.03;;;2.30;87.06
32733;BME280;11867;51.198;11.966;2023-01-26T01:48:51;101207.47;;;2.19;86.06
32733;BME280;11867;51.198;11.966;2023-01-26T01:49:55;101208.47;;;2.05;86.81
32733;BME280;11867;51.198;11.966;2023-01-26T01:50:59;101201.22;;;2.06;86.81
32733;BME280;11867;51.198;11.966;2023-01-26T01:52:06;101206.09;;;1.75;87.71
32733;BME280;11867;51.198;11.966;2023-01-26T01:53:12;101201.59;;;1.89;88.07
32733;BME280;11867;51.198;11.966;2023-01-26T01:54:18;101200.50;;;1.70;87.53
32733;BME280;11867;51.198;11.966;2023-01-26T01:55:23;101193.38;;;1.49;89.15
32733;BME280;11867;51.198;11.966;2023-01-26T01:56:28;101200.94;;;1.74;88.95
32733;BME280;11867;51.198;11.966;2023-01-26T01:57:32;101204.81;;;1.71;89.04
32733;BME280;11867;51.198;11.966;2023-01-26T01:58:45;101200.53;;;1.84;88.35
32733;BME280;11867;51.198;11.966;2023-01-26T01:59:50;101193.09;;;1.86;88.12
32733;BME280;11867;51.198;11.966;2023-01-26T02:00:54;101194.94;;;1.78;88.35
32733;BME280;11867;51.198;11.966;2023-01-26T02:01:56;101183.19;;;1.93;88.15
32733;BME280;11867;51.198;11.966;2023-01-26T02:03:02;101189.84;;;1.97;87.95
32733;BME280;11867;51.198;11.966;2023-01-26T02:04:11;101194.78;;;1.93;87.60
32733;BME280;11867;51.198;11.966;2023-01-26T02:05:21;101190.28;;;2.07;88.00
32733;BME280;11867;51.198;11.966;2023-01-26T02:06:28;101187.81;;;2.26;87.10
32733;BME280;11867;51.198;11.966;2023-01-26T02:07:32;101191.91;;;2.15;86.08
32733;BME280;11867;51.198;11.966;2023-01-26T02:08:36;101190.47;;;2.06;86.81
32733;BME280;11867;51.198;11.966;2023-01-26T02:09:40;101189.22;;;2.01;87.09
32733;BME280;11867;51.198;11.966;2023-01-26T02:11:06;101186.97;;;2.12;86.73
32733;BME280;11867;51.198;11.966;2023-01-26T02:12:12;101168.94;;;2.06;86.89
32733;BME280;11867;51.198;11.966;2023-01-26T02:13:15;101178.06;;;2.25;86.59
32733;BME280;11867;51.198;11.966;2023-01-26T02:14:18;101166.69;;;2.16;86.48
32733;BME280;11867;51.198;11.966;2023-01-26T02:15:19;101184.06;;;2.13;86.74
32733;BME280;11867;51.198;11.966;2023-01-26T02:16:22;101176.75;;;1.87;87.41
32733;BME280;11867;51.198;11.966;2023-01-26T02:17:24;101149.03;;;1.80;87.09
32733;BME280;11867;51.198;11.966;2023-01-26T02:18:26;101173.28;;;2.07;87.00
32733;BME280;11867;51.198;11.966;2023-01-26T02:19:35;101172.03;;;2.02;86.79
32733;BME280;11867;51.198;11.966;2023-01-26T02:20:42;101163.31;;;1.94;87.03
32733;BME280;11867;51.198;11.966;2023-01-26T02:21:48;101171.84;;;2.04;87.07
32733;BME280;11867;51.198;11.966;2023-01-26T02:22:55;101168.13;;;2.05;87.17
32733;BME280;11867;51.198;11.966;2023-01-26T02:24:06;101166.88;;;2.14;86.83
32733;BME280;11867;51.198;11.966;2023-01-26T02:25:18;101172.88;;;2.16;86.52
32733;BME280;11867;51.198;11.966;2023-01-26T02:26:25;101168.50;;;1.95;87.16
32733;BME280;11867;51.198;11.966;2023-01-26T02:27:28;101155.06;;;1.89;87.72
32733;BME280;11867;51.198;11.966;2023-01-26T02:28:30;101158.56;;;1.83;87.82
32733;BME280;11867;51.198;11.966;2023-01-26T02:29:33;101161.44;;;1.81;88.36
32733;BME280;11867;51.198;11.966;2023-01-26T02:30:36;101167.69;;;1.95;88.35
32733;BME280;11867;51.198;11.966;2023-01-26T02:31:38;101168.69;;;1.94;87.78
32733;BME280;11867;51.198;11.966;2023-01-26T02:32:41;101138.03;;;1.75;88.01
32733;BME280;11867;51.198;11.966;2023-01-26T02:33:43;101157.13;;;1.87;88.14
32733;BME280;11867;51.198;11.966;2023-01-26T02:34:45;101160.22;;;1.90;88.11
32733;BME280;11867;51.198;11.966;2023-01-26T02:35:47;101164.50;;;1.71;88.62
32733;BME280;11867;51.198;11.966;2023-01-26T02:36:55;101137.84;;;1.76;88.83
32733;BME280;11867;51.198;11.966;2023-01-26T02:37:57;101158.28;;;1.64;88.81
32733;BME280;11867;51.198;11.966;2023-01-26T02:39:16;101145.13;;;1.34;89.80
32733;BME280;11867;51.198;11.966;2023-01-26T02:40:23;101159.97;;;1.24;90.94
32733;BME280;11867;51.198;11.966;2023-01-26T02:41:29;101160.06;;;1.44;90.83
32733;BME280;11867;51.198;11.966;2023-01-26T02:43:00;101157.56;;;1.42;91.04
32733;BME280;11867;51.198;11.966;2023-01-26T02:44:04;101156.97;;;1.47;91.08
32733;BME280;11867;51.198;11.966;2023-01-26T02:45:09;101151.53;;;1.33;90.93
32733;BME280;11867;51.198;11.966;2023-01-26T02:46:11;101142.59;;;1.19;91.42
32733;BME280;11867;51.198;11.966;2023-01-26T02:47:15;101137.66;;;1.30;91.96
32733;BME280;11867;51.198;11.966;2023-01-26T02:48:17;101149.91;;;1.39;91.66
32733;BME280;11867;51.198;11.966;2023-01-26T02:49:40;101140.34;;;1.23;91.40
32733;BME280;11867;51.198;11.966;2023-01-26T02:50:47;101145.72;;;1.23;91.68
32733;BME280;11867;51.198;11.966;2023-01-26T02:51:49;101124.19;;;1.16;91.83
32733;BME280;11867;51.198;11.966;2023-01-26T02:52:51;101141.75;;;1.19;92.37
32733;BME280;11867;51.198;11.966;2023-01-26T02:53:53;101100.09;;;0.95;92.11
32733;BME280;11867;51.198;11.966;2023-01-26T02:54:55;101116.66;;;0.98;92.20
32733;BME280;11867;51.198;11.966;2023-01-26T02:56:16;101139.50;;;1.23;92.32
32733;BME280;11867;51.198;11.966;2023-01-26T02:57:19;101118.47;;;1.33;91.86
32733;BME280;11867;51.198;11.966;2023-01-26T02:58:21;101118.50;;;1.46;91.13
32733;BME280;11867;51.198;11.966;2023-01-26T02:59:24;101129.59;;;1.23;91.14
32733;BME280;11867;51.198;11.966;2023-01-26T03:00:27;101128.00;;;1.35;91.30
32733;BME280;11867;51.198;11.966;2023-01-26T03:01:30;101135.63;;;0.97;92.27
32733;BME280;11867;51.198;11.966;2023-01-26T03:02:33;101135.47;;;1.05;92.95
32733;BME280;11867;51.198;11.966;2023-01-26T03:03:36;101111.75;;;0.74;93.49
32733;BME280;11867;51.198;11.966;2023-01-26T03:04:45;101126.25;;;0.79;94.10
32733;BME280;11867;51.198;11.966;2023-01-26T03:05:47;101129.56;;;0.82;94.02
32733;BME280;11867;51.198;11.966;2023-01-26T03:06:49;101131.50;;;0.94;94.32
32733;BME280;11867;51.198;11.966;2023-01-26T03:07:51;101123.38;;;1.16;93.80
32733;BME280;11867;51.198;11.966;2023-01-26T03:08:53;101124.38;;;1.15;93.03
32733;BME280;11867;51.198;11.966;2023-01-26T03:09:55;101124.19;;;1.16;93.17
32733;BME280;11867;51.198;11.966;2023-01-26T03:10:59;101124.97;;;1.04;93.30
32733;BME280;11867;51.198;11.966;2023-01-26T03:12:01;101127.97;;;1.29;93.20
32733;BME280;11867;51.198;11.966;2023-01-26T03:13:05;101132.56;;;1.41;92.00
32733;BME280;11867;51.198;11.966;2023-01-26T03:14:06;101103.53;;;1.24;91.92
32733;BME280;11867;51.198;11.966;2023-01-26T03:15:10;101130.25;;;1.32;91.90
32733;BME280;11867;51.198;11.966;2023-01-26T03:16:30;101127.81;;;1.44;91.70
32733;BME280;11867;51.198;11.966;2023-01-26T03:17:33;101123.47;;;1.42;91.75
32733;BME280;11867;51.198;11.966;2023-01-26T03:18:34;101128.97;;;1.21;92.01
32733;BME280;11867;51.198;11.966;2023-01-26T03:19:55;101121.78;;;1.28;91.88
32733;BME280;11867;51.198;11.966;2023-01-26T03:21:15;101124.50;;;0.93;92.89
32733;BME280;11867;51.198;11.966;2023-01-26T03:22:35;101124.16;;;0.75;93.63
32733;BME280;11867;51.198;11.966;2023-01-26T03:23:56;101100.75;;;0.62;94.37
32733;BME280;11867;51.198;11.966;2023-01-26T03:25:16;101127.75;;;0.89;94.28
32733;BME280;11867;51.198;11.966;2023-01-26T03:26:36;101114.09;;;0.84;94.24
32733;BME280;11867;51.198;11.966;2023-01-26T03:27:56;101116.22;;;0.60;95.11
32733;BME280;11867;51.198;11.966;2023-01-26T03:29:00;101103.34;;;0.84;94.99
32733;BME280;11867;51.198;11.966;2023-01-26T03:30:02;101120.31;;;0.91;94.22
32733;BME280;11867;51.198;11.966;2023-01-26T03:31:06;101111.56;;;0.75;94.14
32733;BME280;11867;51.198;11.966;2023-01-26T03:32:07;101111.06;;;0.93;94.27
32733;BME280;11867;51.198;11.966;2023-01-26T03:33:10;101090.84;;;0.97;94.06
32733;BME280;11867;51.198;11.966;2023-01-26T03:34:11;101107.25;;;1.16;93.16
32733;BME280;11867;51.198;11.966;2023-01-26T03:35:14;101105.03;;;1.26;92.66
32733;BME280;11867;51.198;11.966;2023-01-26T03:36:15;101096.72;;;1.21;92.69
32733;BME280;11867;51.198;11.966;2023-01-26T03:37:18;101103.31;;;1.12;92.32
32733;BME280;11867;51.198;11.966;2023-01-26T03:38:22;101103.97;;;1.20;92.88
32733;BME280;11867;51.198;11.966;2023-01-26T03:39:24;101107.66;;;1.19;92.69
32733;BME280;11867;51.198;11.966;2023-01-26T03:40:44;101103.03;;;1.00;92.89
32733;BME280;11867;51.198;11.966;2023-01-26T03:42:05;101108.50;;;1.20;92.73
32733;BME280;11867;51.198;11.966;2023-01-26T03:43:25;101103.50;;;1.10;93.18
32733;BME280;11867;51.198;11.966;2023-01-26T03:44:47;101100.72;;;1.38;92.25
32733;BME280;11867;51.198;11.966;2023-01-26T03:46:07;101098.78;;;1.19;92.22
32733;BME280;11867;51.198;11.966;2023-01-26T03:47:28;101100.22;;;1.21;92.23
32733;BME280;11867;51.198;11.966;2023-01-26T03:48:48;101093.38;;;1.06;92.34
32733;BME280;11867;51.198;11.966;2023-01-26T03:50:09;101086.72;;;1.02;92.91
32733;BME280;11867;51.198;11.966;2023-01-26T03:51:29;101081.13;;;0.96;93.01
32733;BME280;11867;51.198;11.966;2023-01-26T03:52:50;101085.06;;;1.00;93.34
32733;BME280;11867;51.198;11.966;2023-01-26T03:54:10;101081.75;;;0.98;92.91
32733;BME280;11867;51.198;11.966;2023-01-26T03:55:30;101086.31;;;1.05;92.86
32733;BME280;11867;51.198;11.966;2023-01-26T03:56:50;101095.00;;;1.07;93.13
32733;BME280;11867;51.198;11.966;2023-01-26T03:57:52;101092.78;;;1.17;93.30
32733;BME280;11867;51.198;11.966;2023-01-26T03:58:55;101097.66;;;1.00;92.96
32733;BME280;11867;51.198;11.966;2023-01-26T04:00:00;101095.47;;;0.75;93.61
32733;BME280;11867;51.198;11.966;2023-01-26T04:01:01;101092.72;;;0.62;94.04
32733;BME280;11867;51.198;11.966;2023-01-26T04:02:04;101103.16;;;0.85;94.27
32733;BME280;11867;51.198;11.966;2023-01-26T04:03:25;101099.31;;;1.01;93.84
32733;BME280;11867;51.198;11.966;2023-01-26T04:04:45;101096.31;;;0.83;93.02
32733;BME280;11867;51.198;11.966;2023-01-26T04:06:05;101099.41;;;0.79;93.65
32733;BME280;11867;51.198;11.966;2023-01-26T04:07:25;101090.91;;;0.76;93.93
32733;BME280;11867;51.198;11.966;2023-01-26T04:08:46;101096.63;;;0.66;94.32
32733;BME280;11867;51.198;11.966;2023-01-26T04:09:48;101095.94;;;0.86;94.34
32733;BME280;11867;51.198;11.966;2023-01-26T04:10:50;101090.75;;;0.84;94.24
32733;BME280;11867;51.198;11.966;2023-01-26T04:11:52;101079.31;;;1.04;93.85
32733;BME280;11867;51.198;11.966;2023-01-26T04:12:54;101096.44;;;1.03;93.65
32733;BME280;11867;51.198;11.966;2023-01-26T04:14:14;101091.34;;;1.21;93.41
32733;BME280;11867;51.198;11.966;2023-01-26T04:15:51;101099.03;;;1.24;92.84
32733;BME280;11867;51.198;11.966;2023-01-26T04:17:11;101097.94;;;1.12;92.50
32733;BME280;11867;51.198;11.966;2023-01-26T04:18:32;101097.81;;;1.33;91.71
32733;BME280;11867;51.198;11.966;2023-01-26T04:19:52;101087.59;;;1.15;91.91
32733;BME280;11867;51.198;11.966;2023-01-26T04:21:13;101101.47;;;1.19;91.84
32733;BME280;11867;51.198;11.966;2023-01-26T04:22:35;101104.81;;;1.34;91.49
32733;BME280;11867;51.198;11.966;2023-01-26T04:23:40;101096.25;;;1.04;91.71
32733;BME280;11867;51.198;11.966;2023-01-26T04:24:43;101070.72;;;0.87;91.35
32733;BME280;11867;51.198;11.966;2023-01-26T04:25:45;101106.31;;;0.95;91.54
32733;BME280;11867;51.198;11.966;2023-01-26T04:26:47;101098.19;;;0.82;92.60
32733;BME280;11867;51.198;11.966;2023-01-26T04:27:50;101104.94;;;1.13;92.23
32733;BME280;11867;51.198;11.966;2023-01-26T04:28:51;101102.75;;;1.30;91.32
32733;BME280;11867;51.198;11.966;2023-01-26T04:29:54;101067.13;;;1.08;90.70
32733;BME280;11867;51.198;11.966;2023-01-26T04:30:57;101093.25;;;1.34;90.44
32733;BME280;11867;51.198;11.966;2023-01-26T04:31:59;101078.16;;;1.26;90.52
32733;BME280;11867;51.198;11.966;2023-01-26T04:33:01;101096.84;;;1.54;90.34
32733;BME280;11867;51.198;11.966;2023-01-26T04:34:05;101075.78;;;1.58;89.64
32733;BME280;11867;51.198;11.966;2023-01-26T04:35:08;101076.34;;;1.40;89.51
32733;BME280;11867;51.198;11.966;2023-01-26T04:36:10;101097.25;;;1.51;89.08
32733;BME280;11867;51.198;11.966;2023-01-26T04:37:12;101098.09;;;1.58;89.25
32733;BME280;11867;51.198;11.966;2023-01-26T04:38:14;101100.75;;;1.52;89.13
32733;BME280;11867;51.198;11.966;2023-01-26T04:39:16;101098.53;;;1.62;89.29
32733;BME280;11867;51.198;11.966;2023-01-26T04:40:19;101085.91;;;1.63;89.02
32733;BME280;11867;51.198;11.966;2023-01-26T04:41:21;101088.00;;;1.74;88.73
32733;BME280;11867;51.198;11.966;2023-01-26T04:42:24;101095.25;;;1.87;88.25
32733;BME280;11867;51.198;11.966;2023-01-26T04:43:26;101076.59;;;1.58;88.14
32733;BME280;11867;51.198;11.966;2023-01-26T04:44:29;101070.16;;;1.53;88.56
32733;BME280;11867;51.198;11.966;2023-01-26T04:45:30;101088.78;;;1.61;88.61
32733;BME280;11867;51.198;11.966;2023-01-26T04:46:34;101087.59;;;1.77;88.44
32733;BME280;11867;51.198;11.966;2023-01-26T04:47:35;101094.66;;;1.91;87.83
32733;BME280;11867;51.198;11.966;2023-01-26T04:48:38;101088.84;;;1.88;87.22
32733;BME280;11867;51.198;11.966;2023-01-26T04:49:40;101084.94;;;1.90;87.04
32733;BME280;11867;51.198;11.966;2023-01-26T04:50:42;101091.13;;;1.97;87.08
32733;BME280;11867;51.198;11.966;2023-01-26T04:51:44;101079.56;;;2.04;86.65
32733;BME280;11867;51.198;11.966;2023-01-26T04:52:46;101083.69;;;2.06;86.37
32733;BME280;11867;51.198;11.966;2023-01-26T04:53:49;101086.38;;;1.99;86.83
32733;BME280;11867;51.198;11.966;2023-01-26T04:54:51;101088.03;;;1.87;86.69
32733;BME280;11867;51.198;11.966;2023-01-26T04:55:54;101084.09;;;1.90;86.60
32733;BME280;11867;51.198;11.966;2023-01-26T04:56:57;101091.72;;;1.66;86.05
32733;BME280;11867;51.198;11.966;2023-01-26T04:57:58;101085.66;;;1.51;86.74
32733;BME280;11867;51.198;11.966;2023-01-26T04:59:04;101082.97;;;1.51;87.58
32733;BME280;11867;51.198;11.966;2023-01-26T05:00:08;101078.66;;;1.63;87.13
32733;BME280;11867;51.198;11.966;2023-01-26T05:01:12;101078.22;;;1.53;87.36
32733;BME280;11867;51.198;11.966;2023-01-26T05:02:16;101081.53;;;1.55;87.43
32733;BME280;11867;51.198;11.966;2023-01-26T05:03:18;101067.53;;;1.11;88.21
32733;BME280;11867;51.198;11.966;2023-01-26T05:04:20;101075.03;;;1.16;88.51
32733;BME280;11867;51.198;11.966;2023-01-26T05:05:22;101087.22;;;1.25;88.84
32733;BME280;11867;51.198;11.966;2023-01-26T05:06:24;101074.47;;;1.40;88.43
32733;BME280;11867;51.198;11.966;2023-01-26T05:07:26;101087.97;;;1.60;88.14
32733;BME280;11867;51.198;11.966;2023-01-26T05:08:28;101082.28;;;1.22;87.95
32733;BME280;11867;51.198;11.966;2023-01-26T05:09:31;101062.56;;;1.02;88.76
32733;BME280;11867;51.198;11.966;2023-01-26T05:10:32;101078.13;;;1.19;88.93
32733;BME280;11867;51.198;11.966;2023-01-26T05:11:35;101086.84;;;1.28;88.76
32733;BME280;11867;51.198;11.966;2023-01-26T05:12:37;101084.97;;;1.22;88.54
32733;BME280;11867;51.198;11.966;2023-01-26T05:13:43;101088.22;;;1.11;89.22
32733;BME280;11867;51.198;11.966;2023-01-26T05:14:44;101089.09;;;1.18;89.46
32733;BME280;11867;51.198;11.966;2023-01-26T05:15:47;101087.06;;;1.33;89.35
32733;BME280;11867;51.198;11.966;2023-01-26T05:16:48;101089.31;;;1.30;88.75
32733;BME280;11867;51.198;11.966;2023-01-26T05:17:52;101080.44;;;1.36;88.68
32733;BME280;11867;51.198;11.966;2023-01-26T05:18:54;101078.81;;;1.35;88.51
32733;BME280;11867;51.198;11.966;2023-01-26T05:19:56;101075.69;;;1.38;88.56
32733;BME280;11867;51.198;11.966;2023-01-26T05:20:58;101091.25;;;1.49;88.00
32733;BME280;11867;51.198;11.966;2023-01-26T05:22:01;101086.72;;;1.56;87.91
32733;BME280;11867;51.198;11.966;2023-01-26T05:23:02;101086.34;;;1.66;87.66
32733;BME280;11867;51.198;11.966;2023-01-26T05:24:06;101088.16;;;1.52;87.18
32733;BME280;11867;51.198;11.966;2023-01-26T05:25:09;101060.56;;;1.24;87.65
32733;BME280;11867;51.198;11.966;2023-01-26T05:26:12;101085.84;;;1.42;88.04
32733;BME280;11867;51.198;11.966;2023-01-26T05:27:13;101090.56;;;1.34;88.52
32733;BME280;11867;51.198;11.966;2023-01-26T05:28:22;101097.13;;;1.18;88.60
32733;BME280;11867;51.198;11.966;2023-01-26T05:29:23;101100.09;;;0.95;89.49
32733;BME280;11867;51.198;11.966;2023-01-26T05:30:26;101090.09;;;0.75;90.72
32733;BME280;11867;51.198;11.966;2023-01-26T05:31:28;101082.19;;;0.67;91.20
32733;BME280;11867;51.198;11.966;2023-01-26T05:32:30;101094.81;;;0.73;91.27
32733;BME280;11867;51.198;11.966;2023-01-26T05:33:33;101099.25;;;0.88;91.27
32733;BME280;11867;51.198;11.966;2023-01-26T05:34:36;101099.53;;;0.99;91.24
32733;BME280;11867;51.198;11.966;2023-01-26T05:35:38;101076.34;;;0.92;90.95
32733;BME280;11867;51.198;11.966;2023-01-26T05:36:40;101094.19;;;1.06;90.79
32733;BME280;11867;51.198;11.966;2023-01-26T05:37:42;101096.50;;;1.16;90.23
32733;BME280;11867;51.198;11.966;2023-01-26T05:38:45;101085.78;;;1.23;90.15
32733;BME280;11867;51.198;11.966;2023-01-26T05:39:47;101086.88;;;1.35;89.83
32733;BME280;11867;51.198;11.966;2023-01-26T05:40:50;101094.06;;;1.34;89.76
32733;BME280;11867;51.198;11.966;2023-01-26T05:41:52;101084.41;;;1.47;89.06